createdAt,value
2023-04-22T00:00:34.308Z,99322.84
2023-04-22T00:03:39.324Z,99319.13
2023-04-22T00:06:43.003Z,99325.09
2023-04-22T00:09:47.176Z,99326.19
2023-04-22T00:12:50.684Z,99319.41
2023-04-22T00:15:55.809Z,99315.34
2023-04-22T00:18:59.350Z,99312.97
2023-04-22T00:22:03.070Z,99311.25
2023-04-22T00:25:07.557Z,99313.56
2023-04-22T00:28:11.375Z,99315.50
2023-04-22T00:31:16.483Z,99306.50
2023-04-22T00:34:20.061Z,99308.16
2023-04-22T00:37:23.674Z,99309.94
2023-04-22T00:40:27.129Z,99307.91
2023-04-22T00:43:30.901Z,99307.16
2023-04-22T00:46:36.099Z,99307.00
2023-04-22T00:49:40.695Z,99318.50
2023-04-22T00:52:44.548Z,99320.56
2023-04-22T00:55:48.361Z,99318.25
2023-04-22T00:59:29.068Z,99329.00
2023-04-22T01:02:35.391Z,99325.19
2023-04-22T01:05:39.478Z,99337.44
2023-04-22T01:08:43.845Z,99328.56
2023-04-22T01:11:48.424Z,99322.03
2023-04-22T01:14:52.041Z,99330.00
2023-04-22T01:17:58.296Z,99320.28
2023-04-22T01:21:02.445Z,99321.56
2023-04-22T01:24:08.531Z,99317.22
2023-04-22T01:27:13.461Z,99318.16
2023-04-22T01:30:18.479Z,99314.41
2023-04-22T01:33:22.159Z,99321.66
2023-04-22T01:36:26.009Z,99316.34
2023-04-22T01:39:32.371Z,99320.84
2023-04-22T01:42:36.199Z,99315.78
2023-04-22T01:45:39.736Z,99310.16
2023-04-22T01:48:43.796Z,99312.63
2023-04-22T01:51:47.352Z,99313.97
2023-04-22T01:54:53.002Z,99306.16
2023-04-22T01:57:56.649Z,99303.25
2023-04-22T02:01:00.392Z,99301.84
2023-04-22T02:04:04.055Z,99308.97
2023-04-22T02:07:07.696Z,99303.19
2023-04-22T02:10:16.235Z,99299.09
2023-04-22T02:13:20.652Z,99295.19
2023-04-22T02:16:25.233Z,99304.59
2023-04-22T02:19:28.938Z,99306.81
2023-04-22T02:22:33.432Z,99306.47
2023-04-22T02:25:39.268Z,99300.81
2023-04-22T02:28:43.030Z,99302.50
2023-04-22T02:31:46.614Z,99302.88
2023-04-22T02:34:50.989Z,99302.25
2023-04-22T02:37:56.852Z,99301.59
2023-04-22T02:41:04.242Z,99307.53
2023-04-22T02:44:07.817Z,99309.63
2023-04-22T02:47:11.513Z,99308.94
2023-04-22T02:50:17.081Z,99319.56
2023-04-22T02:53:20.616Z,99318.16
2023-04-22T02:56:26.945Z,99314.59
2023-04-22T02:59:30.589Z,99321.47
2023-04-22T03:02:34.482Z,99311.78
2023-04-22T03:05:43.967Z,99322.50
2023-04-22T03:08:47.679Z,99317.72
2023-04-22T03:11:52.604Z,99310.00
2023-04-22T03:14:56.361Z,99306.06
2023-04-22T03:18:02.669Z,99310.53
2023-04-22T03:21:06.835Z,99310.06
2023-04-22T03:24:10.521Z,99311.31
2023-04-22T03:27:21.009Z,99313.28
2023-04-22T03:30:24.883Z,99309.84
2023-04-22T03:33:30.173Z,99316.38
2023-04-22T03:36:40.816Z,99321.28
2023-04-22T03:39:44.576Z,99329.84
2023-04-22T03:42:49.759Z,99327.88
2023-04-22T03:45:56.538Z,99339.31
2023-04-22T03:49:03.117Z,99337.72
2023-04-22T03:52:10.881Z,99351.09
2023-04-22T03:55:19.379Z,99346.88
2023-04-22T03:58:25.888Z,99351.38
2023-04-22T04:01:30.734Z,99352.44
2023-04-22T04:04:38.268Z,99358.72
2023-04-22T04:07:44.166Z,99358.53
2023-04-22T04:10:47.877Z,99360.16
2023-04-22T04:13:54.041Z,99367.94
2023-04-22T04:17:03.964Z,99363.88
2023-04-22T04:20:11.435Z,99372.41
2023-04-22T04:23:16.754Z,99365.63
2023-04-22T04:26:22.082Z,99367.44
2023-04-22T04:29:31.479Z,99374.59
2023-04-22T04:32:47.446Z,99368.41
2023-04-22T04:35:54.249Z,99378.03
2023-04-22T04:39:04.402Z,99378.25
2023-04-22T04:42:09.922Z,99376.66
2023-04-22T04:45:24.296Z,99380.81
2023-04-22T04:48:29.160Z,99378.28
2023-04-22T04:51:39.916Z,99387.38
2023-04-22T04:54:44.044Z,99385.69
2023-04-22T04:57:48.413Z,99387.78
2023-04-22T05:00:53.722Z,99381.66
2023-04-22T05:03:58.143Z,99392.63
2023-04-22T05:07:02.291Z,99392.97
2023-04-22T05:10:08.306Z,99396.72
2023-04-22T05:13:12.753Z,99390.59
2023-04-22T05:16:22.522Z,99393.31
2023-04-22T05:19:26.873Z,99392.22
2023-04-22T05:22:31.751Z,99395.59
2023-04-22T05:25:35.782Z,99395.41
2023-04-22T05:28:45.322Z,99399.09
2023-04-22T05:31:50.829Z,99395.81
2023-04-22T05:34:54.653Z,99400.25
2023-04-22T05:37:58.516Z,99396.41
2023-04-22T05:41:02.843Z,99401.59
2023-04-22T05:44:07.046Z,99406.88
2023-04-22T05:47:12.727Z,99403.97
2023-04-22T05:50:16.599Z,99401.03
2023-04-22T05:53:32.762Z,99404.00
2023-04-22T05:56:38.760Z,99404.88
2023-04-22T05:59:42.969Z,99405.06
2023-04-22T06:02:48.706Z,99408.84
2023-04-22T06:05:52.668Z,99405.28
2023-04-22T06:08:56.909Z,99399.91
2023-04-22T06:12:02.220Z,99410.13
2023-04-22T06:15:08.416Z,99399.38
2023-04-22T06:18:14.684Z,99404.06
2023-04-22T06:21:18.538Z,99397.56
2023-04-22T06:24:24.496Z,99402.75
2023-04-22T06:27:28.365Z,99398.72
2023-04-22T06:30:32.217Z,99394.16
2023-04-22T06:33:37.534Z,99391.91
2023-04-22T06:36:41.386Z,99400.13
2023-04-22T06:39:45.115Z,99401.41
2023-04-22T06:43:07.368Z,99389.41
2023-04-22T06:46:29.704Z,99398.31
2023-04-22T06:50:08.805Z,99397.06
2023-04-22T06:53:16.311Z,99395.06
2023-04-22T06:56:20.342Z,99400.41
2023-04-22T06:59:24.152Z,99402.00
2023-04-22T07:02:28.434Z,99397.97
2023-04-22T07:05:33.818Z,99405.66
2023-04-22T07:08:39.826Z,99402.03
2023-04-22T07:11:44.349Z,99404.28
2023-04-22T07:14:55.238Z,99409.78
2023-04-22T07:17:59.136Z,99408.75
2023-04-22T07:21:04.360Z,99407.94
2023-04-22T07:24:12.254Z,99413.59
2023-04-22T07:27:16.116Z,99415.41
2023-04-22T07:30:19.889Z,99416.91
2023-04-22T07:33:23.586Z,99410.53
2023-04-22T07:36:28.948Z,99408.91
2023-04-22T07:39:32.799Z,99411.66
2023-04-22T07:42:38.615Z,99413.66
2023-04-22T07:45:42.627Z,99411.25
2023-04-22T07:48:46.347Z,99410.75
2023-04-22T07:51:53.565Z,99406.94
2023-04-22T07:54:57.371Z,99406.56
2023-04-22T07:58:03.804Z,99401.06
2023-04-22T08:01:07.762Z,99409.25
2023-04-22T08:04:11.883Z,99406.19
2023-04-22T08:07:32.521Z,99400.09
2023-04-22T08:10:37.018Z,99402.66
2023-04-22T08:13:40.798Z,99398.06
2023-04-22T08:16:45.091Z,99403.59
2023-04-22T08:19:49.129Z,99393.81
2023-04-22T08:22:58.501Z,99392.69
2023-04-22T08:26:02.355Z,99392.94
2023-04-22T08:29:06.402Z,99391.63
2023-04-22T08:32:10.698Z,99387.50
2023-04-22T08:35:14.499Z,99384.41
2023-04-22T08:38:20.242Z,99378.78
2023-04-22T08:41:25.581Z,99374.16
2023-04-22T08:44:30.198Z,99371.34
2023-04-22T08:47:34.473Z,99364.72
2023-04-22T08:50:40.923Z,99368.84
2023-04-22T08:53:46.992Z,99370.28
2023-04-22T08:56:52.434Z,99366.56
2023-04-22T08:59:57.927Z,99358.97
2023-04-22T09:03:03.897Z,99362.59
2023-04-22T09:06:09.672Z,99346.81
2023-04-22T09:09:15.566Z,99341.50
2023-04-22T09:12:19.688Z,99343.69
2023-04-22T09:15:23.931Z,99334.91
2023-04-22T09:18:27.998Z,99334.06
2023-04-22T09:21:35.154Z,99332.81
2023-04-22T09:24:44.211Z,99332.00
2023-04-22T09:27:52.063Z,99325.44
2023-04-22T09:30:55.944Z,99315.91
2023-04-22T09:34:02.182Z,99319.97
2023-04-22T09:37:07.454Z,99317.84
2023-04-22T09:40:17.149Z,99309.56
2023-04-22T09:43:21.179Z,99299.94
2023-04-22T09:46:26.092Z,99298.66
2023-04-22T09:49:30.069Z,99288.94
2023-04-22T09:52:34.910Z,99295.75
2023-04-22T09:55:41.952Z,99287.78
2023-04-22T09:58:46.139Z,99282.31
2023-04-22T10:01:51.175Z,99287.78
2023-04-22T10:04:55.073Z,99280.22
2023-04-22T10:07:58.965Z,99279.03
2023-04-22T10:11:04.975Z,99283.41
2023-04-22T10:14:10.799Z,99280.94
2023-04-22T10:17:15.730Z,99278.34
2023-04-22T10:20:21.763Z,99287.41
2023-04-22T10:23:26.758Z,99278.88
2023-04-22T10:26:49.537Z,99274.03
2023-04-22T10:29:53.418Z,99281.09
2023-04-22T10:32:57.308Z,99280.09
2023-04-22T10:36:09.478Z,99279.84
2023-04-22T10:39:19.234Z,99285.88
2023-04-22T10:42:24.807Z,99281.25
2023-04-22T10:45:28.559Z,99290.41
2023-04-22T10:48:50.047Z,99285.78
2023-04-22T10:51:55.123Z,99290.19
2023-04-22T10:55:01.117Z,99292.38
2023-04-22T10:58:21.504Z,99285.41
2023-04-22T11:01:29.420Z,99284.72
2023-04-22T11:04:33.442Z,99292.13
2023-04-22T11:07:37.374Z,99291.53
2023-04-22T11:10:44.658Z,99292.28
2023-04-22T11:13:52.169Z,99294.19
2023-04-22T11:16:56.701Z,99307.47
2023-04-22T11:20:00.724Z,99311.66
2023-04-22T11:23:04.954Z,99323.84
2023-04-22T11:26:08.807Z,99330.25
2023-04-22T11:29:14.041Z,99348.31
2023-04-22T11:32:17.851Z,99360.69
2023-04-22T11:35:23.549Z,99369.88
2023-04-22T11:38:27.429Z,99375.59
2023-04-22T11:41:31.624Z,99382.03
2023-04-22T11:44:36.879Z,99373.66
2023-04-22T11:47:42.006Z,99379.72
2023-04-22T11:50:45.970Z,99384.75
2023-04-22T11:53:52.460Z,99380.59
2023-04-22T11:56:56.333Z,99374.81
2023-04-22T12:00:01.704Z,99376.34
2023-04-22T12:03:10.968Z,99378.41
2023-04-22T12:06:18.261Z,99381.28
2023-04-22T12:09:25.938Z,99377.59
2023-04-22T12:12:30.324Z,99388.34
2023-04-22T12:15:46.761Z,99394.13
2023-04-22T12:18:52.091Z,99405.09
2023-04-22T12:21:57.875Z,99405.25
2023-04-22T12:25:02.217Z,99399.03
2023-04-22T12:28:06.088Z,99398.59
2023-04-22T12:31:12.472Z,99397.63
2023-04-22T12:34:16.392Z,99398.34
2023-04-22T12:37:20.733Z,99392.81
2023-04-22T12:40:24.716Z,99380.06
2023-04-22T12:43:28.581Z,99372.09
2023-04-22T12:46:34.845Z,99366.88
2023-04-22T12:49:40.050Z,99363.03
2023-04-22T12:52:44.097Z,99358.09
2023-04-22T12:55:48.586Z,99351.28
2023-04-22T12:58:52.357Z,99352.72
2023-04-22T13:01:57.565Z,99354.59
2023-04-22T13:05:01.400Z,99361.59
2023-04-22T13:08:07.493Z,99364.53
2023-04-22T13:11:12.069Z,99368.22
2023-04-22T13:14:15.771Z,99373.28
2023-04-22T13:17:21.311Z,99381.78
2023-04-22T13:20:25.028Z,99379.25
2023-04-22T13:23:28.801Z,99380.44
2023-04-22T13:26:32.668Z,99383.19
2023-04-22T13:29:37.161Z,99388.09
2023-04-22T13:32:42.472Z,99393.50
2023-04-22T13:35:47.061Z,99390.19
2023-04-22T13:38:51.476Z,99391.59
2023-04-22T13:41:55.641Z,99390.25
2023-04-22T13:44:59.328Z,99390.22
2023-04-22T13:48:04.516Z,99392.69
2023-04-22T13:51:08.282Z,99402.84
2023-04-22T13:54:12.049Z,99400.00
2023-04-22T13:57:15.820Z,99402.38
2023-04-22T14:00:21.086Z,99393.09
2023-04-22T14:03:26.463Z,99396.72
2023-04-22T14:06:30.320Z,99397.66
2023-04-22T14:09:34.730Z,99392.66
2023-04-22T14:12:38.505Z,99395.56
2023-04-22T14:15:42.186Z,99385.31
2023-04-22T14:18:48.237Z,99396.47
2023-04-22T14:21:51.971Z,99414.38
2023-04-22T14:24:55.891Z,99406.47
2023-04-22T14:27:59.701Z,99402.16
2023-04-22T14:31:03.624Z,99405.34
2023-04-22T14:34:08.973Z,99399.78
2023-04-22T14:37:13.069Z,99415.66
2023-04-22T14:40:16.972Z,99414.03
2023-04-22T14:43:21.324Z,99407.56
2023-04-22T14:46:25.158Z,99408.69
2023-04-22T14:49:31.953Z,99403.91
2023-04-22T14:52:36.910Z,99406.66
2023-04-22T14:55:40.631Z,99415.91
2023-04-22T14:58:44.501Z,99409.63
2023-04-22T15:01:48.406Z,99404.28
2023-04-22T15:04:53.696Z,99412.50
2023-04-22T15:07:58.085Z,99412.03
2023-04-22T15:11:01.834Z,99413.09
2023-04-22T15:14:05.746Z,99405.91
2023-04-22T15:17:10.025Z,99418.00
2023-04-22T15:20:15.503Z,99416.34
2023-04-22T15:23:19.417Z,99426.56
2023-04-22T15:26:23.171Z,99427.13
2023-04-22T15:29:28.655Z,99431.97
2023-04-22T15:32:32.646Z,99427.66
2023-04-22T15:35:37.969Z,99426.88
2023-04-22T15:38:41.731Z,99418.56
2023-04-22T15:41:46.146Z,99418.09
2023-04-22T15:44:49.912Z,99426.03
2023-04-22T15:47:54.942Z,99421.16
2023-04-22T15:51:00.144Z,99422.00
2023-04-22T15:54:04.178Z,99419.13
2023-04-22T15:57:07.958Z,99424.38
2023-04-22T16:00:14.210Z,99420.09
2023-04-22T16:03:18.398Z,99416.88
2023-04-22T16:06:24.357Z,99417.88
2023-04-22T16:09:28.037Z,99417.91
2023-04-22T16:12:33.521Z,99422.56
2023-04-22T16:15:38.468Z,99427.25
2023-04-22T16:18:44.269Z,99424.22
2023-04-22T16:21:49.795Z,99429.50
2023-04-22T16:24:53.573Z,99430.13
2023-04-22T16:27:57.388Z,99425.66
2023-04-22T16:31:01.582Z,99429.09
2023-04-22T16:34:05.874Z,99429.84
2023-04-22T16:37:11.123Z,99434.78
2023-04-22T16:40:14.898Z,99435.53
2023-04-22T16:43:18.663Z,99437.53
2023-04-22T16:46:22.452Z,99440.97
2023-04-22T16:49:26.363Z,99441.16
2023-04-22T16:52:31.620Z,99450.69
2023-04-22T16:55:37.007Z,99449.53
2023-04-22T16:58:40.938Z,99464.91
2023-04-22T17:01:45.077Z,99456.53
2023-04-22T17:04:48.940Z,99466.69
2023-04-22T17:07:54.081Z,99462.19
2023-04-22T17:10:58.100Z,99472.13
2023-04-22T17:14:01.823Z,99467.16
2023-04-22T17:17:05.506Z,99470.72
2023-04-22T17:20:10.071Z,99478.75
2023-04-22T17:23:15.294Z,99490.16
2023-04-22T17:26:19.000Z,99487.28
2023-04-22T17:29:23.490Z,99486.78
2023-04-22T17:32:27.460Z,99488.97
2023-04-22T17:35:31.291Z,99502.50
2023-04-22T17:38:36.553Z,99498.78
2023-04-22T17:41:40.468Z,99499.22
2023-04-22T17:44:44.191Z,99503.88
2023-04-22T17:47:49.082Z,99502.75
2023-04-22T17:50:52.983Z,99510.16
2023-04-22T17:53:58.518Z,99514.28
2023-04-22T17:57:02.464Z,99510.72
2023-04-22T18:00:08.642Z,99520.81
2023-04-22T18:03:12.740Z,99519.94
2023-04-22T18:06:16.741Z,99520.00
2023-04-22T18:09:22.003Z,99520.19
2023-04-22T18:12:30.422Z,99525.41
2023-04-22T18:15:34.546Z,99541.22
2023-04-22T18:18:39.003Z,99539.75
2023-04-22T18:21:56.762Z,99535.19
2023-04-22T18:25:05.004Z,99544.56
2023-04-22T18:28:08.820Z,99539.38
2023-04-22T18:31:12.554Z,99543.78
2023-04-22T18:34:16.836Z,99553.38
2023-04-22T18:37:21.368Z,99556.28
2023-04-22T18:40:26.611Z,99561.31
2023-04-22T18:43:30.353Z,99566.56
2023-04-22T18:46:34.100Z,99565.44
2023-04-22T18:49:37.927Z,99562.41
2023-04-22T18:52:41.791Z,99559.78
2023-04-22T18:55:47.477Z,99563.41
2023-04-22T18:58:51.687Z,99571.78
2023-04-22T19:01:55.575Z,99572.84
2023-04-22T19:04:59.515Z,99570.88
2023-04-22T19:08:03.151Z,99571.97
2023-04-22T19:11:08.469Z,99569.50
2023-04-22T19:14:13.930Z,99571.31
2023-04-22T19:17:17.814Z,99573.22
2023-04-22T19:20:21.660Z,99573.88
2023-04-22T19:23:25.692Z,99576.94
2023-04-22T19:26:31.379Z,99573.88
2023-04-22T19:29:35.163Z,99569.13
2023-04-22T19:32:38.995Z,99567.56
2023-04-22T19:35:42.740Z,99569.59
2023-04-22T19:38:46.418Z,99570.94
2023-04-22T19:41:51.697Z,99572.69
2023-04-22T19:44:56.231Z,99567.66
2023-04-22T19:48:00.509Z,99567.47
2023-04-22T19:51:05.562Z,99569.53
2023-04-22T19:54:12.128Z,99570.66
2023-04-22T19:57:17.476Z,99576.91
2023-04-22T20:00:22.152Z,99575.53
2023-04-22T20:03:26.642Z,99587.91
2023-04-22T20:06:31.882Z,99583.00
2023-04-22T20:09:37.127Z,99578.16
2023-04-22T20:12:42.483Z,99574.69
2023-04-22T20:15:46.440Z,99577.50
2023-04-22T20:18:50.763Z,99572.31
2023-04-22T20:21:57.015Z,99574.69
2023-04-22T20:25:04.021Z,99576.34
2023-04-22T20:28:10.958Z,99584.94
2023-04-22T20:31:16.952Z,99585.59
2023-04-22T20:34:21.429Z,99586.06
2023-04-22T20:37:27.265Z,99588.59
2023-04-22T20:40:31.485Z,99585.69
2023-04-22T20:43:37.128Z,99586.66
2023-04-22T20:46:40.904Z,99590.66
2023-04-22T20:49:45.027Z,99593.75
2023-04-22T20:52:49.312Z,99589.06
2023-04-22T20:55:53.129Z,99588.25
2023-04-22T20:58:58.406Z,99584.66
2023-04-22T21:02:04.489Z,99591.78
2023-04-22T21:05:11.431Z,99583.78
2023-04-22T21:08:23.402Z,99594.66
2023-04-22T21:11:27.933Z,99589.31
2023-04-22T21:14:33.644Z,99588.16
2023-04-22T21:17:44.657Z,99586.84
2023-04-22T21:20:52.081Z,99586.31
2023-04-22T21:23:57.061Z,99586.69
2023-04-22T21:27:01.617Z,99581.69
2023-04-22T21:30:08.399Z,99583.13
2023-04-22T21:33:12.390Z,99586.22
2023-04-22T21:36:16.552Z,99587.78
2023-04-22T21:39:20.223Z,99585.03
2023-04-22T21:42:24.088Z,99578.56
2023-04-22T21:45:29.208Z,99585.88
2023-04-22T21:48:33.000Z,99587.25
2023-04-22T21:51:36.971Z,99585.81
2023-04-22T21:54:41.191Z,99589.75
2023-04-22T21:57:45.210Z,99586.72
2023-04-22T22:00:50.526Z,99589.69
2023-04-22T22:03:54.764Z,99587.22
2023-04-22T22:06:58.861Z,99604.25
2023-04-22T22:10:02.601Z,99600.19
2023-04-22T22:13:06.321Z,99602.25
2023-04-22T22:16:11.734Z,99599.72
2023-04-22T22:19:15.616Z,99597.53
2023-04-22T22:22:19.280Z,99602.44
2023-04-22T22:25:22.982Z,99597.13
2023-04-22T22:28:26.734Z,99593.91
2023-04-22T22:31:31.805Z,99602.63
2023-04-22T22:34:35.760Z,99592.25
2023-04-22T22:37:39.462Z,99583.16
2023-04-22T22:40:43.153Z,99582.56
2023-04-22T22:43:46.880Z,99585.47
2023-04-22T22:46:52.024Z,99582.44
2023-04-22T22:49:55.729Z,99582.22
2023-04-22T22:52:59.733Z,99585.00
2023-04-22T22:56:03.729Z,99578.94
2023-04-22T22:59:07.330Z,99586.91
2023-04-22T23:02:14.433Z,99585.00
2023-04-22T23:05:18.539Z,99580.41
2023-04-22T23:08:22.286Z,99592.59
2023-04-22T23:11:26.191Z,99590.78
2023-04-22T23:14:30.350Z,99584.13
2023-04-22T23:17:35.451Z,99586.13
2023-04-22T23:20:39.738Z,99584.31
2023-04-22T23:23:43.732Z,99582.09
2023-04-22T23:26:47.974Z,99580.66
2023-04-22T23:29:52.231Z,99577.19
2023-04-22T23:32:59.002Z,99579.03
2023-04-22T23:36:06.272Z,99582.03
2023-04-22T23:39:10.004Z,99588.63
2023-04-22T23:42:13.759Z,99588.75
2023-04-22T23:45:17.645Z,99589.09
2023-04-22T23:48:22.789Z,99596.53
2023-04-22T23:51:27.795Z,99596.41
2023-04-22T23:54:31.949Z,99592.88
2023-04-22T23:57:36.142Z,99592.38
